Terminal Aerodrome Forecast
Issued by NWS Duluth, MN

Home | Current Version | Previous Version | Text Only | Print | Product List | Glossary On
Versions: 1 2 3 4 5 6 7 8 9 10 11 12 13 14 15 16 17 18 19 20 21 22 23
694
FTUS43 KDLH 172336
TAFDLH
TAF
KDLH 172336Z 1800/1824 17005KT P6SM SKC
     FM180400 25009KT P6SM FEW010 SCT150 WS020/30037KT
     FM180700 28012KT P6SM SCT150 WS020/31040KT
     FM181700 28012KT P6SM SCT150=

USA.gov is the U.S. government's official web portal to all federal, state and local government web resources and services.